Fred, Texas
Current Conditions -  °F | °C
As of 8:55 AM on Wednesday 26 Nov 2014 (Local Time) from KJAS Reporting Station
Clear Clear  
Wind Chill: 46°   Ceiling: Unl
Heat Index: 49°   Visibility: 10mi
Dew Point: 43°   Wind: 6mph
Humidity: 82%   Direction: 210°SSW
Pressure: 30.23"   Gusts: NA
Location:  30.58°N, 94.18°W
Report Text: KJAS 261455Z AUTO 21005KT 10SM CLR 09/06 A3023 RMK AO2 T00930063
Loading
Personal Weather Stations






























Interactive Weather Map New forecast layout! Learn more

10-Day Weather Forecast

Advertisements
Track Severe Weather on mobile